createdAt,value
2023-01-27T00:00:54.606Z,96554.25
2023-01-27T00:03:21.686Z,96546.59
2023-01-27T00:05:48.409Z,96547.66
2023-01-27T00:08:16.033Z,96543.88
2023-01-27T00:10:42.886Z,96536.97
2023-01-27T00:13:29.434Z,96547.59
2023-01-27T00:15:56.294Z,96537.72
2023-01-27T00:18:23.902Z,96544.34
2023-01-27T00:21:09.501Z,96543.25
2023-01-27T00:23:55.081Z,96560.06
2023-01-27T00:26:21.946Z,96557.13
2023-01-27T00:28:49.134Z,96576.16
2023-01-27T00:31:35.986Z,96568.09
2023-01-27T00:34:09.421Z,96581.53
2023-01-27T00:36:38.665Z,96568.94
2023-01-27T00:39:06.613Z,96580.28
2023-01-27T00:41:34.379Z,96579.28
2023-01-27T00:44:01.704Z,96580.94
2023-01-27T00:46:29.348Z,96565.97
2023-01-27T00:48:56.271Z,96568.28
2023-01-27T00:51:23.512Z,96560.25
2023-01-27T00:53:50.480Z,96556.56
2023-01-27T00:56:17.799Z,96540.38
2023-01-27T00:58:44.480Z,96532.34
2023-01-27T01:01:14.008Z,96527.34
2023-01-27T01:03:41.215Z,96525.47
2023-01-27T01:06:11.033Z,96521.59
2023-01-27T01:08:38.621Z,96517.41
2023-01-27T01:11:07.263Z,96523.66
2023-01-27T01:13:34.185Z,96530.75
2023-01-27T01:16:09.165Z,96519.34
2023-01-27T01:18:35.955Z,96521.75
2023-01-27T01:21:02.689Z,96529.56
2023-01-27T01:23:29.527Z,96529.38
2023-01-27T01:25:57.866Z,96532.91
2023-01-27T01:28:25.423Z,96523.06
2023-01-27T01:30:52.579Z,96517.72
2023-01-27T01:33:19.301Z,96523.00
2023-01-27T01:35:46.057Z,96517.38
2023-01-27T01:38:14.440Z,96521.78
2023-01-27T01:40:43.792Z,96518.28
2023-01-27T01:43:16.126Z,96510.13
2023-01-27T01:45:47.396Z,96511.34
2023-01-27T01:48:25.507Z,96509.44
2023-01-27T01:51:20.430Z,96506.94
2023-01-27T01:53:59.710Z,96519.03
2023-01-27T01:56:34.969Z,96511.28
2023-01-27T01:59:06.659Z,96499.91
2023-01-27T02:01:33.491Z,96495.28
2023-01-27T02:04:05.393Z,96487.91
2023-01-27T02:06:42.516Z,96481.72
2023-01-27T02:09:10.493Z,96469.31
2023-01-27T02:11:37.051Z,96462.88
2023-01-27T02:14:03.882Z,96466.03
2023-01-27T02:16:31.381Z,96468.41
2023-01-27T02:18:58.153Z,96482.44
2023-01-27T02:21:25.238Z,96486.69
2023-01-27T02:24:10.955Z,96482.91
2023-01-27T02:26:44.064Z,96488.19
2023-01-27T02:29:13.852Z,96483.66
2023-01-27T02:31:41.250Z,96470.81
2023-01-27T02:34:14.940Z,96469.16
2023-01-27T02:36:48.071Z,96457.31
2023-01-27T02:39:17.260Z,96457.50
2023-01-27T02:41:47.820Z,96453.34
2023-01-27T02:44:14.612Z,96438.28
2023-01-27T02:46:41.454Z,96461.38
2023-01-27T02:49:08.524Z,96454.28
2023-01-27T02:51:35.355Z,96483.91
2023-01-27T02:54:02.085Z,96481.91
2023-01-27T02:56:28.894Z,96469.03
2023-01-27T02:58:56.420Z,96448.81
2023-01-27T03:01:24.429Z,96456.03
2023-01-27T03:03:51.580Z,96458.44
2023-01-27T03:06:18.976Z,96460.16
2023-01-27T03:08:46.003Z,96468.31
2023-01-27T03:11:12.718Z,96474.19
2023-01-27T03:13:40.171Z,96476.50
2023-01-27T03:16:25.943Z,96482.25
2023-01-27T03:18:56.593Z,96485.38
2023-01-27T03:21:23.384Z,96486.03
2023-01-27T03:23:50.213Z,96473.38
2023-01-27T03:26:16.902Z,96478.19
2023-01-27T03:28:43.803Z,96466.25
2023-01-27T03:31:21.260Z,96470.97
2023-01-27T03:33:53.200Z,96463.59
2023-01-27T03:36:38.337Z,96457.84
2023-01-27T03:39:23.887Z,96453.22
2023-01-27T03:42:09.096Z,96436.13
2023-01-27T03:44:54.464Z,96425.84
2023-01-27T03:47:21.105Z,96436.38
2023-01-27T03:49:47.858Z,96461.34
2023-01-27T03:52:14.549Z,96468.94
2023-01-27T03:54:41.281Z,96461.16
2023-01-27T03:57:07.991Z,96458.09
2023-01-27T03:59:35.285Z,96458.75
2023-01-27T04:02:21.026Z,96447.34
2023-01-27T04:05:06.202Z,96448.53
2023-01-27T04:07:36.971Z,96460.88
2023-01-27T04:10:07.199Z,96473.00
2023-01-27T04:12:33.908Z,96460.47
2023-01-27T04:15:00.707Z,96442.44
2023-01-27T04:17:27.410Z,96442.06
2023-01-27T04:19:54.092Z,96449.25
2023-01-27T04:22:20.727Z,96459.59
2023-01-27T04:24:47.351Z,96464.31
2023-01-27T04:27:20.421Z,96470.59
2023-01-27T04:29:47.243Z,96462.06
2023-01-27T04:32:14.623Z,96455.69
2023-01-27T04:34:41.929Z,96458.94
2023-01-27T04:37:09.729Z,96462.63
2023-01-27T04:39:36.812Z,96463.53
2023-01-27T04:42:03.634Z,96450.69
2023-01-27T04:44:30.800Z,96462.25
2023-01-27T04:46:57.553Z,96456.19
2023-01-27T04:49:26.783Z,96454.25
2023-01-27T04:51:54.097Z,96458.22
2023-01-27T04:54:20.930Z,96460.81
2023-01-27T04:57:00.281Z,96465.78
2023-01-27T04:59:27.394Z,96456.19
2023-01-27T05:01:54.404Z,96453.97
2023-01-27T05:04:21.723Z,96446.34
2023-01-27T05:06:48.765Z,96426.91
2023-01-27T05:09:15.648Z,96421.75
2023-01-27T05:11:42.384Z,96432.84
2023-01-27T05:14:09.059Z,96428.41
2023-01-27T05:16:35.745Z,96411.28
2023-01-27T05:19:02.384Z,96420.84
2023-01-27T05:21:30.921Z,96428.97
2023-01-27T05:23:57.755Z,96435.81
2023-01-27T05:26:27.201Z,96424.16
2023-01-27T05:28:56.670Z,96404.16
2023-01-27T05:31:26.178Z,96428.19
2023-01-27T05:33:54.791Z,96435.44
2023-01-27T05:36:23.498Z,96440.63
2023-01-27T05:38:51.143Z,96433.97
2023-01-27T05:41:19.105Z,96437.38
2023-01-27T05:43:48.002Z,96446.91
2023-01-27T05:46:22.963Z,96449.50
2023-01-27T05:48:55.013Z,96434.78
2023-01-27T05:51:23.875Z,96437.63
2023-01-27T05:53:51.282Z,96433.38
2023-01-27T05:56:19.917Z,96441.13
2023-01-27T05:58:47.158Z,96451.59
2023-01-27T06:01:18.458Z,96452.69
2023-01-27T06:03:46.382Z,96460.28
2023-01-27T06:06:15.431Z,96473.88
2023-01-27T06:08:42.390Z,96458.88
2023-01-27T06:11:09.585Z,96454.25
2023-01-27T06:13:39.068Z,96466.47
2023-01-27T06:16:08.955Z,96464.91
2023-01-27T06:18:36.133Z,96469.06
2023-01-27T06:21:05.035Z,96466.53
2023-01-27T06:23:32.332Z,96457.94
2023-01-27T06:26:09.575Z,96469.06
2023-01-27T06:28:37.936Z,96464.44
2023-01-27T06:31:10.198Z,96459.84
2023-01-27T06:33:37.883Z,96463.34
2023-01-27T06:36:11.396Z,96460.69
2023-01-27T06:38:38.515Z,96462.00
2023-01-27T06:41:05.611Z,96473.56
2023-01-27T06:43:32.501Z,96481.97
2023-01-27T06:45:59.388Z,96496.97
2023-01-27T06:48:27.486Z,96497.03
2023-01-27T06:50:54.937Z,96502.97
2023-01-27T06:53:21.740Z,96498.78
2023-01-27T06:55:48.765Z,96491.41
2023-01-27T06:58:16.278Z,96489.38
2023-01-27T07:00:43.455Z,96484.47
2023-01-27T07:05:41.702Z,96483.50
2023-01-27T07:08:08.799Z,96494.03
2023-01-27T07:10:35.558Z,96486.13
2023-01-27T07:13:13.179Z,96487.78
2023-01-27T07:15:40.240Z,96497.13
2023-01-27T07:18:07.256Z,96506.66
2023-01-27T07:20:34.272Z,96507.94
2023-01-27T07:23:03.102Z,96519.41
2023-01-27T07:25:30.922Z,96521.53
2023-01-27T07:27:58.979Z,96512.00
2023-01-27T07:30:27.168Z,96501.06
2023-01-27T07:32:55.363Z,96508.34
2023-01-27T07:35:23.320Z,96505.69
2023-01-27T07:37:50.272Z,96514.56
2023-01-27T07:40:18.332Z,96511.41
2023-01-27T07:42:45.069Z,96515.84
2023-01-27T07:45:12.031Z,96506.63
2023-01-27T07:47:38.896Z,96516.50
2023-01-27T07:50:06.583Z,96488.69
2023-01-27T07:52:33.611Z,96502.97
2023-01-27T07:55:00.375Z,96493.84
2023-01-27T07:57:27.320Z,96489.56
2023-01-27T07:59:55.901Z,96480.66
2023-01-27T08:02:26.359Z,96477.34
2023-01-27T08:04:53.929Z,96485.50
2023-01-27T08:07:21.634Z,96477.34
2023-01-27T08:09:48.702Z,96485.84
2023-01-27T08:12:15.625Z,96476.97
2023-01-27T08:14:42.356Z,96474.56
2023-01-27T08:17:08.976Z,96470.75
2023-01-27T08:19:35.710Z,96463.53
2023-01-27T08:22:02.394Z,96464.16
2023-01-27T08:24:29.255Z,96461.03
2023-01-27T08:26:56.287Z,96460.84
2023-01-27T08:29:23.215Z,96465.34
2023-01-27T08:31:49.877Z,96463.09
2023-01-27T08:34:17.155Z,96449.84
2023-01-27T08:36:43.936Z,96448.63
2023-01-27T08:39:11.588Z,96447.81
2023-01-27T08:41:38.957Z,96456.13
2023-01-27T08:44:05.969Z,96455.41
2023-01-27T08:46:33.164Z,96454.28
2023-01-27T08:49:00.114Z,96458.63
2023-01-27T08:51:26.976Z,96454.91
2023-01-27T08:53:53.743Z,96448.59
2023-01-27T08:56:20.447Z,96441.94
2023-01-27T08:58:48.597Z,96446.38
2023-01-27T09:01:16.758Z,96449.28
2023-01-27T09:03:43.615Z,96451.03
2023-01-27T09:06:12.707Z,96441.81
2023-01-27T09:08:40.780Z,96434.56
2023-01-27T09:11:11.903Z,96430.19
2023-01-27T09:13:38.783Z,96424.19
2023-01-27T09:16:05.800Z,96421.72
2023-01-27T09:18:33.109Z,96415.19
2023-01-27T09:21:06.498Z,96414.25
2023-01-27T09:23:36.199Z,96419.25
2023-01-27T09:26:03.125Z,96418.63
2023-01-27T09:28:29.949Z,96429.81
2023-01-27T09:30:58.686Z,96426.50
2023-01-27T09:33:26.316Z,96426.69
2023-01-27T09:36:01.861Z,96420.59
2023-01-27T09:38:34.498Z,96421.09
2023-01-27T09:41:19.953Z,96422.78
2023-01-27T09:43:59.013Z,96424.03
2023-01-27T09:46:37.892Z,96420.31
2023-01-27T09:49:11.096Z,96411.09
2023-01-27T09:51:45.294Z,96405.78
2023-01-27T09:54:12.169Z,96416.56
2023-01-27T09:56:43.962Z,96405.69
2023-01-27T09:59:21.325Z,96405.91
2023-01-27T10:02:13.002Z,96402.06
2023-01-27T10:04:52.782Z,96398.94
2023-01-27T10:07:48.445Z,96405.38
2023-01-27T10:10:53.983Z,96403.53
2023-01-27T10:13:44.003Z,96410.38
2023-01-27T10:16:23.042Z,96393.88
2023-01-27T10:19:09.671Z,96394.41
2023-01-27T10:21:51.510Z,96398.53
2023-01-27T10:24:57.331Z,96390.88
2023-01-27T10:27:26.107Z,96392.31
2023-01-27T10:30:09.890Z,96392.94
2023-01-27T10:32:57.555Z,96383.19
2023-01-27T10:35:33.033Z,96382.97
2023-01-27T10:38:34.459Z,96380.06
2023-01-27T10:41:22.810Z,96372.81
2023-01-27T10:44:08.190Z,96369.69
2023-01-27T10:46:48.560Z,96362.03
2023-01-27T10:50:00.448Z,96362.84
2023-01-27T10:52:49.070Z,96359.44
2023-01-27T10:55:35.291Z,96348.31
2023-01-27T10:58:21.057Z,96346.25
2023-01-27T11:01:19.397Z,96338.78
2023-01-27T11:03:45.911Z,96352.06
2023-01-27T11:06:18.191Z,96341.91
2023-01-27T11:08:53.855Z,96340.03
2023-01-27T11:11:43.907Z,96337.94
2023-01-27T11:14:26.666Z,96340.31
2023-01-27T11:17:13.036Z,96324.44
2023-01-27T11:19:45.511Z,96337.72
2023-01-27T11:22:23.030Z,96326.88
2023-01-27T11:25:03.067Z,96322.81
2023-01-27T11:27:50.263Z,96320.44
2023-01-27T11:30:26.388Z,96315.13
2023-01-27T11:32:57.678Z,96318.34
2023-01-27T11:35:24.871Z,96327.91
2023-01-27T11:37:58.303Z,96320.31
2023-01-27T11:40:34.489Z,96327.69
2023-01-27T11:43:02.438Z,96330.28
2023-01-27T11:45:32.317Z,96339.41
2023-01-27T11:48:01.372Z,96330.41
2023-01-27T11:50:33.143Z,96338.91
2023-01-27T11:53:29.580Z,96334.56
2023-01-27T11:56:03.761Z,96328.41
2023-01-27T11:58:48.563Z,96322.41
2023-01-27T12:01:22.677Z,96327.28
2023-01-27T12:04:10.081Z,96321.47
2023-01-27T12:06:45.894Z,96327.41
2023-01-27T12:09:32.707Z,96330.59
2023-01-27T12:12:20.058Z,96325.09
2023-01-27T12:14:54.971Z,96325.31
2023-01-27T12:17:38.824Z,96322.94
2023-01-27T12:20:17.576Z,96338.25
2023-01-27T12:22:49.387Z,96340.66
2023-01-27T12:25:22.764Z,96342.53
2023-01-27T12:27:56.682Z,96335.66
2023-01-27T12:30:27.345Z,96341.81
2023-01-27T12:32:55.005Z,96339.41
2023-01-27T12:35:33.015Z,96336.13
2023-01-27T12:38:18.695Z,96343.88
2023-01-27T12:40:47.407Z,96351.47
2023-01-27T12:43:20.271Z,96343.47
2023-01-27T12:46:20.803Z,96353.34
2023-01-27T12:48:50.872Z,96341.09
2023-01-27T12:51:22.202Z,96350.03
2023-01-27T12:53:50.704Z,96340.03
2023-01-27T12:56:21.287Z,96338.72
2023-01-27T12:58:59.109Z,96342.44
2023-01-27T13:01:28.078Z,96337.47
2023-01-27T13:04:10.607Z,96346.06
2023-01-27T13:06:43.545Z,96336.44
2023-01-27T13:09:37.762Z,96342.84
2023-01-27T13:12:28.406Z,96340.34
2023-01-27T13:15:18.245Z,96346.16
2023-01-27T13:17:50.364Z,96338.50
2023-01-27T13:20:28.455Z,96337.25
2023-01-27T13:23:05.805Z,96338.59
2023-01-27T13:25:43.369Z,96344.28
2023-01-27T13:28:15.636Z,96341.19
2023-01-27T13:30:47.256Z,96356.81
2023-01-27T13:33:32.823Z,96350.59
2023-01-27T13:36:08.550Z,96350.91
2023-01-27T13:38:45.987Z,96348.13
2023-01-27T13:41:25.571Z,96344.19
2023-01-27T13:44:02.365Z,96352.06
2023-01-27T13:46:34.100Z,96351.00
2023-01-27T13:49:15.275Z,96364.59
2023-01-27T13:51:42.203Z,96362.00
2023-01-27T13:54:12.545Z,96365.31
2023-01-27T13:57:32.875Z,96365.78
2023-01-27T14:00:10.924Z,96364.50
2023-01-27T14:02:43.786Z,96368.75
2023-01-27T14:05:42.007Z,96361.81
2023-01-27T14:08:13.367Z,96368.75
2023-01-27T14:11:09.390Z,96369.06
2023-01-27T14:14:13.491Z,96369.69
2023-01-27T14:16:53.053Z,96371.03
2023-01-27T14:19:41.652Z,96376.09
2023-01-27T14:22:20.726Z,96379.44
2023-01-27T14:24:57.454Z,96376.94
2023-01-27T14:27:32.141Z,96379.63
2023-01-27T14:30:11.787Z,96385.31
2023-01-27T14:33:06.248Z,96387.09
2023-01-27T14:35:48.906Z,96391.34
2023-01-27T14:38:39.332Z,96388.66
2023-01-27T14:41:20.902Z,96389.06
2023-01-27T14:44:17.334Z,96394.16
2023-01-27T14:46:44.032Z,96403.38
2023-01-27T14:49:27.085Z,96390.72
2023-01-27T14:51:56.927Z,96396.13
2023-01-27T14:54:26.549Z,96390.00
2023-01-27T14:57:08.262Z,96392.47
2023-01-27T15:00:02.805Z,96395.81
2023-01-27T15:02:37.597Z,96396.63
2023-01-27T15:05:29.120Z,96392.47
2023-01-27T15:08:18.808Z,96390.59
2023-01-27T15:11:20.803Z,96387.91
2023-01-27T15:14:08.952Z,96394.13
2023-01-27T15:16:48.019Z,96397.41
2023-01-27T15:19:36.854Z,96390.19
2023-01-27T15:22:15.546Z,96406.53
2023-01-27T15:24:51.456Z,96411.81
2023-01-27T15:27:18.511Z,96411.28
2023-01-27T15:29:46.372Z,96409.41
2023-01-27T15:32:16.723Z,96417.28
2023-01-27T15:34:45.635Z,96411.47
2023-01-27T15:37:28.332Z,96415.84
2023-01-27T15:40:16.825Z,96414.59
2023-01-27T15:42:55.934Z,96406.09
2023-01-27T15:45:46.087Z,96416.91
2023-01-27T15:48:22.690Z,96414.19
2023-01-27T15:51:06.743Z,96404.16
2023-01-27T15:53:40.739Z,96410.66
2023-01-27T15:56:08.189Z,96409.63
2023-01-27T15:58:51.078Z,96411.28
2023-01-27T16:01:30.968Z,96412.84
2023-01-27T16:04:06.499Z,96417.72
2023-01-27T16:06:34.967Z,96418.94
2023-01-27T16:09:06.705Z,96429.34
2023-01-27T16:11:37.201Z,96421.97
2023-01-27T16:14:13.041Z,96435.53
2023-01-27T16:16:41.755Z,96421.72
2023-01-27T16:19:11.835Z,96434.25
2023-01-27T16:21:41.788Z,96431.69
2023-01-27T16:24:19.970Z,96431.88
2023-01-27T16:26:54.357Z,96434.47
2023-01-27T16:29:31.677Z,96437.13
2023-01-27T16:32:05.909Z,96431.88
2023-01-27T16:34:41.803Z,96431.56
2023-01-27T16:37:30.033Z,96437.25
2023-01-27T16:40:01.709Z,96438.25
2023-01-27T16:42:34.918Z,96429.03
2023-01-27T16:45:15.435Z,96430.03
2023-01-27T16:47:47.489Z,96443.38
2023-01-27T16:50:38.010Z,96447.44
2023-01-27T16:53:08.135Z,96451.50
2023-01-27T16:55:35.034Z,96460.72
2023-01-27T16:58:02.537Z,96455.75
2023-01-27T17:00:34.383Z,96458.19
2023-01-27T17:03:08.818Z,96468.16
2023-01-27T17:05:35.704Z,96466.09
2023-01-27T17:08:19.566Z,96465.56
2023-01-27T17:10:57.848Z,96462.78
2023-01-27T17:13:34.754Z,96466.22
2023-01-27T17:16:06.304Z,96466.09
2023-01-27T17:18:50.793Z,96472.47
2023-01-27T17:21:47.782Z,96461.56
2023-01-27T17:24:37.722Z,96462.38
2023-01-27T17:27:26.682Z,96464.06
2023-01-27T17:30:02.807Z,96474.44
2023-01-27T17:32:35.540Z,96466.09
2023-01-27T17:35:06.507Z,96477.72
2023-01-27T17:37:33.497Z,96471.09
2023-01-27T17:40:03.838Z,96472.03
2023-01-27T17:42:32.976Z,96471.28
2023-01-27T17:45:21.721Z,96477.00
2023-01-27T17:47:48.631Z,96483.59
2023-01-27T17:50:25.939Z,96483.09
2023-01-27T17:52:56.035Z,96474.81
2023-01-27T17:55:24.876Z,96478.13
2023-01-27T17:58:05.305Z,96465.56
2023-01-27T18:00:38.145Z,96483.69
2023-01-27T18:03:22.512Z,96486.81
2023-01-27T18:05:52.858Z,96481.81
2023-01-27T18:08:19.851Z,96473.34
2023-01-27T18:10:46.915Z,96487.06
2023-01-27T18:13:19.793Z,96494.84
2023-01-27T18:15:50.766Z,96503.06
2023-01-27T18:18:24.141Z,96499.66
2023-01-27T18:21:15.963Z,96503.91
2023-01-27T18:23:45.947Z,96492.38
2023-01-27T18:26:19.013Z,96492.16
2023-01-27T18:28:50.767Z,96504.91
2023-01-27T18:31:26.755Z,96499.09
2023-01-27T18:34:07.247Z,96505.50
2023-01-27T18:36:36.536Z,96513.16
2023-01-27T18:39:23.023Z,96512.50
2023-01-27T18:41:50.473Z,96514.38
2023-01-27T18:44:19.202Z,96509.75
2023-01-27T18:46:46.105Z,96521.13
2023-01-27T18:49:13.631Z,96520.69
2023-01-27T18:51:41.358Z,96523.28
2023-01-27T18:54:12.231Z,96522.34
2023-01-27T18:56:39.058Z,96522.16
2023-01-27T18:59:05.957Z,96525.94
2023-01-27T19:01:35.181Z,96521.88
2023-01-27T19:04:02.904Z,96526.78
2023-01-27T19:06:29.705Z,96530.94
2023-01-27T19:08:56.563Z,96533.78
2023-01-27T19:11:23.263Z,96536.81
2023-01-27T19:13:50.093Z,96534.16
2023-01-27T19:16:18.136Z,96543.09
2023-01-27T19:18:45.065Z,96543.19
2023-01-27T19:21:14.471Z,96541.81
2023-01-27T19:23:45.069Z,96534.16
2023-01-27T19:26:20.432Z,96546.63
2023-01-27T19:28:51.407Z,96544.47
2023-01-27T19:31:18.648Z,96553.72
2023-01-27T19:33:47.564Z,96545.84
2023-01-27T19:36:14.413Z,96544.19
2023-01-27T19:38:41.415Z,96543.59
2023-01-27T19:41:10.720Z,96543.69
2023-01-27T19:43:37.910Z,96542.75
2023-01-27T19:46:16.652Z,96547.06
2023-01-27T19:48:43.848Z,96556.53
2023-01-27T19:51:12.159Z,96564.41
2023-01-27T19:53:39.080Z,96561.44
2023-01-27T19:56:16.297Z,96564.88
2023-01-27T19:58:45.894Z,96576.13
2023-01-27T20:01:13.399Z,96570.25
2023-01-27T20:03:40.304Z,96574.31
2023-01-27T20:06:27.786Z,96573.66
2023-01-27T20:08:56.857Z,96567.84
2023-01-27T20:11:33.149Z,96574.84
2023-01-27T20:14:02.026Z,96581.06
2023-01-27T20:16:29.437Z,96570.78
2023-01-27T20:19:03.433Z,96574.84
2023-01-27T20:21:31.639Z,96583.81
2023-01-27T20:23:59.390Z,96582.16
2023-01-27T20:26:26.340Z,96585.75
2023-01-27T20:28:53.323Z,96585.47
2023-01-27T20:31:22.926Z,96586.41
2023-01-27T20:33:53.099Z,96586.13
2023-01-27T20:36:23.810Z,96588.63
2023-01-27T20:38:51.810Z,96589.47
2023-01-27T20:41:22.878Z,96597.78
2023-01-27T20:43:55.637Z,96591.28
2023-01-27T20:46:22.523Z,96596.28
2023-01-27T20:48:49.640Z,96599.06
2023-01-27T20:51:17.096Z,96605.16
2023-01-27T20:53:45.756Z,96608.28
2023-01-27T20:56:21.352Z,96613.69
2023-01-27T20:58:48.953Z,96612.47
2023-01-27T21:01:18.578Z,96615.72
2023-01-27T21:03:45.651Z,96614.25
2023-01-27T21:06:14.189Z,96619.25
2023-01-27T21:08:42.715Z,96614.78
2023-01-27T21:11:11.482Z,96611.19
2023-01-27T21:13:38.536Z,96621.09
2023-01-27T21:16:05.563Z,96616.56
2023-01-27T21:18:32.505Z,96619.91
2023-01-27T21:21:00.990Z,96618.78
2023-01-27T21:23:31.629Z,96623.69
2023-01-27T21:26:07.412Z,96629.63
2023-01-27T21:28:34.310Z,96633.09
2023-01-27T21:31:14.129Z,96635.44
2023-01-27T21:33:41.378Z,96626.91
2023-01-27T21:36:10.741Z,96632.75
2023-01-27T21:38:38.594Z,96632.75
2023-01-27T21:41:13.234Z,96637.75
2023-01-27T21:43:58.568Z,96636.81
2023-01-27T21:46:25.561Z,96640.16
2023-01-27T21:48:52.716Z,96648.47
2023-01-27T21:51:19.656Z,96645.88
2023-01-27T21:53:46.448Z,96648.47
2023-01-27T21:56:13.466Z,96658.47
2023-01-27T21:58:40.378Z,96654.75
2023-01-27T22:01:10.828Z,96654.84
2023-01-27T22:03:38.606Z,96648.09
2023-01-27T22:06:07.109Z,96653.63
2023-01-27T22:08:34.617Z,96649.41
2023-01-27T22:11:06.526Z,96657.06
2023-01-27T22:13:33.664Z,96654.56
2023-01-27T22:16:00.989Z,96648.47
2023-01-27T22:18:28.681Z,96637.81
2023-01-27T22:20:55.574Z,96640.69
2023-01-27T22:23:24.410Z,96648.81
2023-01-27T22:25:51.816Z,96650.88
2023-01-27T22:28:19.663Z,96650.69
2023-01-27T22:30:46.773Z,96647.72
2023-01-27T22:33:13.657Z,96650.31
2023-01-27T22:35:40.525Z,96646.47
2023-01-27T22:38:07.372Z,96652.59
2023-01-27T22:40:34.339Z,96653.41
2023-01-27T22:43:01.619Z,96657.88
2023-01-27T22:45:28.526Z,96655.53
2023-01-27T22:47:55.436Z,96654.16
2023-01-27T22:50:22.230Z,96658.22
2023-01-27T22:52:49.444Z,96654.88
2023-01-27T22:55:16.535Z,96657.28
2023-01-27T22:57:45.340Z,96652.88
2023-01-27T23:00:12.579Z,96659.53
2023-01-27T23:02:39.512Z,96660.25
2023-01-27T23:05:06.756Z,96664.91
2023-01-27T23:07:33.660Z,96656.78
2023-01-27T23:10:01.055Z,96660.69
2023-01-27T23:12:27.802Z,96662.16
2023-01-27T23:14:54.724Z,96664.34
2023-01-27T23:17:21.573Z,96657.53
2023-01-27T23:19:48.368Z,96671.22
2023-01-27T23:22:15.251Z,96654.41
2023-01-27T23:24:42.202Z,96664.28
2023-01-27T23:27:09.127Z,96661.06
2023-01-27T23:29:36.078Z,96656.88
2023-01-27T23:32:02.984Z,96660.75
2023-01-27T23:34:29.887Z,96672.06
2023-01-27T23:36:57.031Z,96661.94
2023-01-27T23:39:23.877Z,96661.94
2023-01-27T23:41:51.430Z,96660.41
2023-01-27T23:44:18.399Z,96665.47
2023-01-27T23:46:45.330Z,96664.66
2023-01-27T23:49:12.654Z,96674.34
2023-01-27T23:51:39.853Z,96670.66
2023-01-27T23:54:06.716Z,96670.84
2023-01-27T23:56:33.719Z,96671.69
2023-01-27T23:59:00.630Z,96667.69
